createdAt,value
2022-08-28T00:00:22.041Z,101217.84
2022-08-28T00:01:25.103Z,101209.97
2022-08-28T00:02:28.601Z,101218.06
2022-08-28T00:03:32.272Z,101218.06
2022-08-28T00:04:35.861Z,101223.44
2022-08-28T00:05:40.042Z,101223.88
2022-08-28T00:06:42.082Z,101226.56
2022-08-28T00:07:47.788Z,101211.47
2022-08-28T00:08:50.188Z,101216.03
2022-08-28T00:09:53.210Z,101220.56
2022-08-28T00:10:55.178Z,101220.56
2022-08-28T00:11:58.205Z,101230.97
2022-08-28T00:13:00.240Z,101223.47
2022-08-28T00:14:04.670Z,101226.41
2022-08-28T00:15:09.720Z,101217.53
2022-08-28T00:16:18.069Z,101223.91
2022-08-28T00:17:20.337Z,101219.59
2022-08-28T00:18:25.632Z,101226.00
2022-08-28T00:19:27.897Z,101227.88
2022-08-28T00:20:31.719Z,101231.59
2022-08-28T00:21:33.949Z,101222.91
2022-08-28T00:22:38.243Z,101223.97
2022-08-28T00:23:42.492Z,101227.50
2022-08-28T00:24:46.018Z,101230.19
2022-08-28T00:25:48.044Z,101230.41
2022-08-28T00:27:08.453Z,101224.19
2022-08-28T00:28:18.435Z,101227.09
2022-08-28T00:29:27.446Z,101230.81
2022-08-28T00:30:32.835Z,101228.97
2022-08-28T00:31:38.552Z,101231.66
2022-08-28T00:32:40.680Z,101231.88
2022-08-28T00:33:46.765Z,101230.22
2022-08-28T00:34:50.531Z,101228.16
2022-08-28T00:35:54.584Z,101228.56
2022-08-28T00:36:56.617Z,101228.56
2022-08-28T00:38:00.152Z,101226.09
2022-08-28T00:39:02.227Z,101223.41
2022-08-28T00:40:05.897Z,101220.09
2022-08-28T00:41:08.255Z,101223.63
2022-08-28T00:42:11.970Z,101223.81
2022-08-28T00:43:34.845Z,101225.66
2022-08-28T00:44:36.880Z,101218.66
2022-08-28T00:45:40.374Z,101218.66
2022-08-28T00:46:44.945Z,101219.09
2022-08-28T00:47:48.146Z,101218.88
2022-08-28T00:48:51.534Z,101219.88
2022-08-28T00:49:57.081Z,101222.59
2022-08-28T00:51:17.743Z,101214.72
2022-08-28T00:52:21.805Z,101219.31
2022-08-28T00:53:27.099Z,101222.00
2022-08-28T00:54:34.762Z,101223.25
2022-08-28T00:55:37.832Z,101225.09
2022-08-28T00:56:40.855Z,101223.25
2022-08-28T00:57:49.209Z,101229.66
2022-08-28T00:58:56.187Z,101218.06
2022-08-28T00:59:59.315Z,101218.91
2022-08-28T01:01:01.602Z,101226.16
2022-08-28T01:02:07.124Z,101201.81
2022-08-28T01:03:09.287Z,101216.63
2022-08-28T01:04:17.083Z,101213.34
2022-08-28T01:05:19.365Z,101215.22
2022-08-28T01:06:23.067Z,101216.25
2022-08-28T01:07:25.136Z,101220.81
2022-08-28T01:08:31.273Z,101219.13
2022-08-28T01:09:35.026Z,101217.50
2022-08-28T01:10:38.626Z,101218.56
2022-08-28T01:11:44.176Z,101224.16
2022-08-28T01:12:49.917Z,101226.22
2022-08-28T01:13:54.508Z,101222.47
2022-08-28T01:15:00.072Z,101226.22
2022-08-28T01:16:03.937Z,101229.13
2022-08-28T01:17:09.347Z,101218.41
2022-08-28T01:18:15.624Z,101227.25
2022-08-28T01:19:27.589Z,101222.09
2022-08-28T01:20:34.942Z,101222.09
2022-08-28T01:21:47.157Z,101222.31
2022-08-28T01:22:59.181Z,101221.47
2022-08-28T01:24:06.871Z,101230.38
2022-08-28T01:25:14.121Z,101227.69
2022-08-28T01:26:16.173Z,101226.25
2022-08-28T01:27:19.354Z,101228.94
2022-08-28T01:28:21.411Z,101227.91
2022-08-28T01:29:24.453Z,101229.53
2022-08-28T01:30:26.931Z,101229.53
2022-08-28T01:31:32.654Z,101221.28
2022-08-28T01:32:38.080Z,101228.13
2022-08-28T01:33:43.141Z,101231.66
2022-08-28T01:34:45.139Z,101224.59
2022-08-28T01:35:48.795Z,101227.50
2022-08-28T01:36:51.060Z,101233.72
2022-08-28T01:37:55.885Z,101234.72
2022-08-28T01:39:01.525Z,101225.03
2022-08-28T01:40:09.396Z,101234.94
2022-08-28T01:41:12.737Z,101224.41
2022-08-28T01:42:16.206Z,101228.78
2022-08-28T01:43:21.524Z,101225.47
2022-08-28T01:44:28.778Z,101229.16
2022-08-28T01:45:31.403Z,101188.75
2022-08-28T01:46:34.646Z,101234.56
2022-08-28T01:47:36.812Z,101228.38
2022-08-28T01:48:43.572Z,101231.28
2022-08-28T01:49:45.676Z,101240.13
2022-08-28T01:50:48.784Z,101238.28
2022-08-28T01:51:51.277Z,101240.13
2022-08-28T01:52:57.789Z,101242.03
2022-08-28T01:54:00.564Z,101234.19
2022-08-28T01:55:07.921Z,101239.56
2022-08-28T01:56:13.151Z,101238.72
2022-08-28T01:57:16.484Z,101233.56
2022-08-28T01:58:19.921Z,101238.94
2022-08-28T01:59:23.901Z,101236.47
2022-08-28T02:00:27.677Z,101241.84
2022-08-28T02:01:30.937Z,101244.53
2022-08-28T02:02:33.073Z,101250.94
2022-08-28T02:03:36.153Z,101242.06
2022-08-28T02:04:39.315Z,101246.59
2022-08-28T02:05:41.472Z,101249.28
2022-08-28T02:06:44.779Z,101244.94
2022-08-28T02:07:47.141Z,101248.66
2022-08-28T02:08:54.718Z,101247.84
2022-08-28T02:09:57.777Z,101247.84
2022-08-28T02:11:01.249Z,101244.34
2022-08-28T02:12:05.615Z,101244.75
2022-08-28T02:13:08.780Z,101251.56
2022-08-28T02:14:11.944Z,101253.44
2022-08-28T02:15:14.034Z,101254.25
2022-08-28T02:16:17.606Z,101252.63
2022-08-28T02:17:19.761Z,101250.13
2022-08-28T02:18:22.930Z,101254.47
2022-08-28T02:19:25.028Z,101258.19
2022-08-28T02:20:29.310Z,101248.91
2022-08-28T02:21:31.490Z,101250.34
2022-08-28T02:22:34.821Z,101261.09
2022-08-28T02:23:37.924Z,101249.94
2022-08-28T02:24:41.557Z,101248.69
2022-08-28T02:25:43.651Z,101249.75
2022-08-28T02:26:48.137Z,101253.44
2022-08-28T02:27:50.346Z,101248.50
2022-08-28T02:28:53.426Z,101253.88
2022-08-28T02:29:55.665Z,101254.94
2022-08-28T02:30:59.726Z,101252.44
2022-08-28T02:32:01.959Z,101241.09
2022-08-28T02:33:05.453Z,101246.47
2022-08-28T02:34:07.553Z,101248.31
2022-08-28T02:35:12.305Z,101244.19
2022-08-28T02:36:15.578Z,101245.00
2022-08-28T02:37:18.919Z,101234.91
2022-08-28T02:38:22.526Z,101233.84
2022-08-28T02:39:25.629Z,101241.31
2022-08-28T02:40:28.293Z,101237.59
2022-08-28T02:41:31.468Z,101237.19
2022-08-28T02:42:34.984Z,101232.66
2022-08-28T02:43:38.234Z,101236.34
2022-08-28T02:44:40.339Z,101231.00
2022-08-28T02:45:43.512Z,101233.88
2022-08-28T02:46:45.601Z,101238.41
2022-08-28T02:47:49.072Z,101228.94
2022-08-28T02:48:51.153Z,101227.09
2022-08-28T02:49:54.315Z,101233.47
2022-08-28T02:50:59.063Z,101237.22
2022-08-28T02:52:02.087Z,101239.28
2022-08-28T02:53:04.177Z,101233.91
2022-08-28T02:54:07.330Z,101224.41
2022-08-28T02:55:12.485Z,101232.47
2022-08-28T02:56:15.872Z,101235.34
2022-08-28T02:57:17.997Z,101237.00
2022-08-28T02:58:22.791Z,101231.84
2022-08-28T02:59:26.120Z,101239.09
2022-08-28T03:00:28.281Z,101237.44
2022-08-28T03:01:31.884Z,101245.72
2022-08-28T03:02:34.198Z,101239.28
2022-08-28T03:03:37.450Z,101243.84
2022-08-28T03:04:43.116Z,101238.47
2022-08-28T03:05:46.235Z,101235.16
2022-08-28T03:06:49.881Z,101238.47
2022-08-28T03:07:53.540Z,101243.84
2022-08-28T03:08:56.968Z,101249.19
2022-08-28T03:09:59.045Z,101209.19
2022-08-28T03:11:02.319Z,101245.09
2022-08-28T03:12:05.575Z,101242.41
2022-08-28T03:13:08.692Z,101247.78
2022-08-28T03:14:12.203Z,101237.47
2022-08-28T03:15:15.383Z,101248.00
2022-08-28T03:16:18.095Z,101241.78
2022-08-28T03:17:22.422Z,101244.69
2022-08-28T03:18:25.546Z,101242.00
2022-08-28T03:19:29.174Z,101230.84
2022-08-28T03:20:32.296Z,101243.84
2022-08-28T03:21:34.345Z,101236.00
2022-08-28T03:22:55.333Z,101244.91
2022-08-28T03:23:58.515Z,101243.22
2022-08-28T03:25:00.628Z,101245.09
2022-08-28T03:26:06.056Z,101238.50
2022-08-28T03:27:08.980Z,101248.81
2022-08-28T03:28:12.355Z,101244.47
2022-08-28T03:29:17.174Z,101244.69
2022-08-28T03:30:20.727Z,101242.81
2022-08-28T03:31:26.769Z,101242.81
2022-08-28T03:32:29.458Z,101238.50
2022-08-28T03:33:33.786Z,101243.88
2022-08-28T03:34:36.011Z,101243.03
2022-08-28T03:35:39.176Z,101241.19
2022-08-28T03:36:42.266Z,101243.88
2022-08-28T03:37:44.531Z,101243.88
2022-08-28T03:38:47.618Z,101242.22
2022-08-28T03:39:49.973Z,101236.22
2022-08-28T03:40:53.532Z,101238.50
2022-08-28T03:41:55.754Z,101242.00
2022-08-28T03:42:59.502Z,101237.66
2022-08-28T03:44:02.189Z,101243.88
2022-08-28T03:45:09.637Z,101239.53
2022-08-28T03:46:16.398Z,101243.25
2022-08-28T03:47:19.524Z,101240.56
2022-08-28T03:48:24.406Z,101243.25
2022-08-28T03:49:27.465Z,101244.28
2022-08-28T03:50:31.447Z,101248.00
2022-08-28T03:51:36.232Z,101242.63
2022-08-28T03:52:39.472Z,101238.28
2022-08-28T03:53:43.458Z,101237.25
2022-08-28T03:54:45.487Z,101239.34
2022-08-28T03:55:49.010Z,101242.03
2022-08-28T03:56:52.208Z,101236.03
2022-08-28T03:57:55.251Z,101238.50
2022-08-28T03:59:00.281Z,101237.66
2022-08-28T04:00:05.742Z,101246.56
2022-08-28T04:01:15.473Z,101238.50
2022-08-28T04:02:20.503Z,101245.72
2022-08-28T04:03:22.654Z,101240.97
2022-08-28T04:04:25.754Z,101240.97
2022-08-28T04:05:28.629Z,101234.56
2022-08-28T04:06:32.194Z,101236.44
2022-08-28T04:07:35.117Z,101243.44
2022-08-28T04:08:38.359Z,101235.59
2022-08-28T04:09:40.460Z,101236.44
2022-08-28T04:10:44.079Z,101235.59
2022-08-28T04:11:46.162Z,101236.44
2022-08-28T04:12:49.222Z,101234.97
2022-08-28T04:13:52.303Z,101239.56
2022-08-28T04:14:55.110Z,101241.41
2022-08-28T04:15:59.611Z,101241.41
2022-08-28T04:17:03.248Z,101247.78
2022-08-28T04:18:06.782Z,101237.03
2022-08-28T04:19:08.912Z,101241.81
2022-08-28T04:20:12.690Z,101232.53
2022-08-28T04:21:16.993Z,101239.13
2022-08-28T04:22:20.052Z,101235.63
2022-08-28T04:23:25.709Z,101240.16
2022-08-28T04:24:28.804Z,101240.16
2022-08-28T04:25:31.038Z,101242.84
2022-08-28T04:26:36.652Z,101240.16
2022-08-28T04:27:38.767Z,101238.50
2022-08-28T04:28:43.245Z,101243.88
2022-08-28T04:29:45.283Z,101247.78
2022-08-28T04:30:48.362Z,101236.25
2022-08-28T04:31:50.600Z,101241.41
2022-08-28T04:32:55.145Z,101238.94
2022-08-28T04:33:58.695Z,101242.44
2022-08-28T04:35:01.841Z,101242.19
2022-08-28T04:36:05.352Z,101244.31
2022-08-28T04:37:08.445Z,101241.84
2022-08-28T04:38:10.533Z,101241.00
2022-08-28T04:39:13.836Z,101245.53
2022-08-28T04:40:16.251Z,101244.69
2022-08-28T04:41:19.510Z,101243.03
2022-08-28T04:42:21.569Z,101243.03
2022-08-28T04:43:24.850Z,101240.34
2022-08-28T04:44:27.148Z,101230.66
2022-08-28T04:45:31.011Z,101241.38
2022-08-28T04:46:33.523Z,101239.72
2022-08-28T04:47:37.245Z,101252.13
2022-08-28T04:48:41.779Z,101243.25
2022-08-28T04:49:44.851Z,101245.94
2022-08-28T04:50:49.372Z,101251.50
2022-08-28T04:51:52.790Z,101246.13
2022-08-28T04:52:54.858Z,101249.03
2022-08-28T04:53:58.635Z,101247.38
2022-08-28T04:55:00.824Z,101240.75
2022-08-28T04:56:06.030Z,101255.03
2022-08-28T04:57:08.612Z,101248.81
2022-08-28T04:58:13.371Z,101252.53
2022-08-28T04:59:16.433Z,101258.50
2022-08-28T05:00:19.740Z,101257.50
2022-08-28T05:01:24.501Z,101252.13
2022-08-28T05:02:27.840Z,101251.72
2022-08-28T05:03:29.944Z,101255.44
2022-08-28T05:04:34.361Z,101260.19
2022-08-28T05:05:41.474Z,101262.47
2022-08-28T05:06:46.457Z,101269.50
2022-08-28T05:07:48.699Z,101261.44
2022-08-28T05:08:51.742Z,101269.28
2022-08-28T05:09:53.947Z,101262.06
2022-08-28T05:10:58.064Z,101262.91
2022-08-28T05:12:02.974Z,101257.31
2022-08-28T05:13:06.057Z,101266.78
2022-08-28T05:14:12.770Z,101261.44
2022-08-28T05:15:19.236Z,101264.75
2022-08-28T05:16:22.439Z,101273.63
2022-08-28T05:17:25.498Z,101265.38
2022-08-28T05:18:28.310Z,101268.66
2022-08-28T05:19:35.229Z,101273.81
2022-08-28T05:20:38.572Z,101274.84
2022-08-28T05:21:42.636Z,101272.56
2022-08-28T05:22:44.810Z,101264.31
2022-08-28T05:23:48.930Z,101270.28
2022-08-28T05:24:52.012Z,101268.66
2022-08-28T05:25:54.197Z,101271.53
2022-08-28T05:26:57.704Z,101276.72
2022-08-28T05:27:59.828Z,101269.47
2022-08-28T05:29:03.075Z,101277.13
2022-08-28T05:30:06.546Z,101265.53
2022-08-28T05:31:11.596Z,101274.63
2022-08-28T05:32:14.722Z,101280.00
2022-08-28T05:33:17.151Z,101280.63
2022-08-28T05:34:20.764Z,101274.19
2022-08-28T05:35:24.939Z,101280.81
2022-08-28T05:36:32.500Z,101280.59
2022-08-28T05:37:35.517Z,101280.41
2022-08-28T05:38:39.776Z,101234.78
2022-08-28T05:39:41.782Z,101271.47
2022-08-28T05:40:46.047Z,101266.72
2022-08-28T05:41:48.169Z,101272.72
2022-08-28T05:42:51.501Z,101261.75
2022-08-28T05:43:54.012Z,101265.28
2022-08-28T05:44:58.852Z,101268.97
2022-08-28T05:46:02.436Z,101272.06
2022-08-28T05:47:08.810Z,101272.69
2022-08-28T05:48:11.962Z,101274.13
2022-08-28T05:49:15.993Z,101264.81
2022-08-28T05:50:18.899Z,101275.13
2022-08-28T05:51:26.577Z,101271.19
2022-08-28T05:52:30.676Z,101276.16
2022-08-28T05:53:34.301Z,101277.56
2022-08-28T05:54:37.409Z,101271.78
2022-08-28T05:55:40.568Z,101275.91
2022-08-28T05:56:45.287Z,101273.84
2022-08-28T05:57:47.263Z,101272.38
2022-08-28T05:58:50.336Z,101268.25
2022-08-28T05:59:53.636Z,101273.16
2022-08-28T06:00:58.396Z,101272.94
2022-08-28T06:02:04.317Z,101273.56
2022-08-28T06:03:06.697Z,101275.41
2022-08-28T06:04:13.056Z,101277.66
2022-08-28T06:05:15.560Z,101276.38
2022-08-28T06:06:18.704Z,101285.91
2022-08-28T06:07:23.191Z,101277.44
2022-08-28T06:08:25.328Z,101284.03
2022-08-28T06:09:30.358Z,101286.31
2022-08-28T06:10:32.489Z,101274.47
2022-08-28T06:11:38.754Z,101281.94
2022-08-28T06:12:45.376Z,101289.13
2022-08-28T06:13:48.920Z,101278.97
2022-08-28T06:14:52.069Z,101283.69
2022-08-28T06:15:57.420Z,101288.66
2022-08-28T06:17:01.101Z,101276.41
2022-08-28T06:18:03.195Z,101287.56
2022-08-28T06:19:06.991Z,101286.28
2022-08-28T06:20:10.752Z,101280.47
2022-08-28T06:21:14.301Z,101282.97
2022-08-28T06:22:18.442Z,101287.47
2022-08-28T06:23:24.095Z,101284.56
2022-08-28T06:24:28.783Z,101291.19
2022-08-28T06:25:31.283Z,101282.66
2022-08-28T06:26:34.612Z,101285.72
2022-08-28T06:27:39.295Z,101280.75
2022-08-28T06:28:42.338Z,101287.31
2022-08-28T06:29:44.806Z,101282.53
2022-08-28T06:31:15.922Z,101280.22
2022-08-28T06:32:11.324Z,101282.03
2022-08-28T06:33:16.376Z,101282.41
2022-08-28T06:34:20.616Z,101276.00
2022-08-28T06:35:22.924Z,101278.88
2022-08-28T06:36:27.835Z,101287.91
2022-08-28T06:37:30.155Z,101284.13
2022-08-28T06:38:35.182Z,101290.69
2022-08-28T06:39:37.289Z,101288.16
2022-08-28T06:40:42.180Z,101294.81
2022-08-28T06:41:45.220Z,101292.25
2022-08-28T06:42:47.276Z,101287.47
2022-08-28T06:43:50.367Z,101293.84
2022-08-28T06:44:52.483Z,101295.88
2022-08-28T06:45:57.608Z,101298.72
2022-08-28T06:47:00.830Z,101294.56
2022-08-28T06:48:03.319Z,101300.50
2022-08-28T06:49:08.286Z,101296.34
2022-08-28T06:50:10.889Z,101302.72
2022-08-28T06:51:15.964Z,101308.50
2022-08-28T06:52:18.253Z,101304.28
2022-08-28T06:53:24.961Z,101307.56
2022-08-28T06:54:30.989Z,101295.94
2022-08-28T06:55:34.399Z,101306.22
2022-08-28T06:56:38.370Z,101308.47
2022-08-28T06:57:41.467Z,101308.00
2022-08-28T06:58:50.543Z,101310.03
2022-08-28T06:59:56.857Z,101313.94
2022-08-28T07:01:04.701Z,101309.94
2022-08-28T07:02:09.359Z,101310.09
2022-08-28T07:03:12.545Z,101320.78
2022-08-28T07:04:15.832Z,101304.97
2022-08-28T07:05:17.975Z,101311.56
2022-08-28T07:06:22.855Z,101318.19
2022-08-28T07:07:31.705Z,101308.53
2022-08-28T07:08:37.662Z,101305.38
2022-08-28T07:09:41.188Z,101302.69
2022-08-28T07:10:44.269Z,101314.25
2022-08-28T07:11:46.723Z,101313.56
2022-08-28T07:12:50.913Z,101309.59
2022-08-28T07:13:53.556Z,101318.88
2022-08-28T07:14:56.602Z,101316.53
2022-08-28T07:15:59.660Z,101312.31
2022-08-28T07:17:03.008Z,101310.59
2022-08-28T07:18:05.105Z,101315.28
2022-08-28T07:19:10.537Z,101308.00
2022-08-28T07:20:12.950Z,101309.53
2022-08-28T07:21:16.198Z,101315.06
2022-08-28T07:22:18.391Z,101312.97
2022-08-28T07:23:21.497Z,101309.00
2022-08-28T07:24:23.585Z,101318.25
2022-08-28T07:25:28.111Z,101308.06
2022-08-28T07:26:31.205Z,101313.00
2022-08-28T07:27:36.079Z,101316.06
2022-08-28T07:28:39.608Z,101302.91
2022-08-28T07:29:41.671Z,101317.81
2022-08-28T07:30:44.908Z,101311.13
2022-08-28T07:31:51.540Z,101312.53
2022-08-28T07:32:53.580Z,101319.34
2022-08-28T07:33:57.198Z,101316.41
2022-08-28T07:34:59.828Z,101303.63
2022-08-28T07:36:07.070Z,101317.38
2022-08-28T07:37:15.100Z,101319.59
2022-08-28T07:38:17.566Z,101316.41
2022-08-28T07:39:20.904Z,101320.31
2022-08-28T07:40:23.117Z,101315.16
2022-08-28T07:41:30.085Z,101324.81
2022-08-28T07:42:50.861Z,101332.19
2022-08-28T07:44:11.441Z,101327.97
2022-08-28T07:45:13.522Z,101331.88
2022-08-28T07:46:16.553Z,101335.72
2022-08-28T07:47:20.271Z,101338.78
2022-08-28T07:48:22.738Z,101341.03
2022-08-28T07:49:26.722Z,101331.63
2022-08-28T07:50:28.840Z,101334.91
2022-08-28T07:51:32.098Z,101330.91
2022-08-28T07:52:34.177Z,101341.84
2022-08-28T07:53:37.506Z,101334.91
2022-08-28T07:54:40.553Z,101336.06
2022-08-28T07:55:43.690Z,101342.16
2022-08-28T07:56:47.519Z,101342.28
2022-08-28T07:57:50.595Z,101349.91
2022-08-28T07:58:56.238Z,101340.75
2022-08-28T07:59:59.441Z,101328.75
2022-08-28T08:01:01.528Z,101341.00
2022-08-28T08:02:05.357Z,101338.53
2022-08-28T08:03:07.779Z,101350.41
2022-08-28T08:04:13.480Z,101346.28
2022-08-28T08:05:16.687Z,101342.16
2022-08-28T08:06:19.043Z,101334.53
2022-08-28T08:07:22.205Z,101348.41
2022-08-28T08:08:25.107Z,101354.66
2022-08-28T08:09:28.541Z,101349.00
2022-08-28T08:10:34.297Z,101342.28
2022-08-28T08:11:37.929Z,101347.44
2022-08-28T08:12:42.725Z,101325.94
2022-08-28T08:13:47.777Z,101342.97
2022-08-28T08:14:53.126Z,101345.78
2022-08-28T08:15:56.415Z,101337.75
2022-08-28T08:17:02.140Z,101342.22
2022-08-28T08:18:05.571Z,101344.47
2022-08-28T08:19:10.167Z,101340.69
2022-08-28T08:20:13.717Z,101344.66
2022-08-28T08:21:19.590Z,101342.88
2022-08-28T08:22:23.143Z,101354.91
2022-08-28T08:23:25.972Z,101353.56
2022-08-28T08:24:30.475Z,101348.16
2022-08-28T08:25:33.619Z,101357.13
2022-08-28T08:26:37.921Z,101344.06
2022-08-28T08:27:43.126Z,101353.13
2022-08-28T08:28:47.541Z,101347.22
2022-08-28T08:29:51.005Z,101351.06
2022-08-28T08:31:04.712Z,101354.69
2022-08-28T08:32:09.654Z,101353.16
2022-08-28T08:33:13.087Z,101348.09
2022-08-28T08:34:16.656Z,101353.00
2022-08-28T08:35:19.823Z,101353.00
2022-08-28T08:36:24.432Z,101357.94
2022-08-28T08:37:27.414Z,101350.97
2022-08-28T08:38:30.575Z,101343.97
2022-08-28T08:39:34.200Z,101357.63
2022-08-28T08:40:36.297Z,101355.59
2022-08-28T08:41:47.858Z,101352.72
2022-08-28T08:42:57.154Z,101348.78
2022-08-28T08:44:03.835Z,101343.44
2022-08-28T08:45:13.686Z,101341.06
2022-08-28T08:46:15.818Z,101346.81
2022-08-28T08:47:23.479Z,101340.31
2022-08-28T08:48:29.271Z,101348.00
2022-08-28T08:49:36.031Z,101344.19
2022-08-28T08:50:39.007Z,101340.44
2022-08-28T08:51:46.736Z,101344.53
2022-08-28T08:53:00.977Z,101344.28
2022-08-28T08:54:06.005Z,101342.16
2022-08-28T08:55:21.994Z,101343.56
2022-08-28T08:56:25.162Z,101346.53
2022-08-28T08:57:38.992Z,101348.16
2022-08-28T08:58:48.812Z,101353.59
2022-08-28T08:59:51.449Z,101356.28
2022-08-28T09:01:01.148Z,101342.16
2022-08-28T09:02:10.711Z,101343.72
2022-08-28T09:03:19.445Z,101339.34
2022-08-28T09:04:34.304Z,101356.72
2022-08-28T09:05:45.188Z,101345.88
2022-08-28T09:06:50.969Z,101355.38
2022-08-28T09:07:57.741Z,101348.91
2022-08-28T09:09:07.059Z,101354.09
2022-08-28T09:10:12.328Z,101356.53
2022-08-28T09:11:31.629Z,101358.19
2022-08-28T09:12:50.152Z,101351.44
2022-08-28T09:14:02.938Z,101349.31
2022-08-28T09:15:13.061Z,101348.22
2022-08-28T09:16:22.151Z,101359.09
2022-08-28T09:17:31.517Z,101356.03
2022-08-28T09:18:36.087Z,101352.75
2022-08-28T09:19:40.512Z,101359.00
2022-08-28T09:20:44.136Z,101348.75
2022-08-28T09:21:48.153Z,101350.94
2022-08-28T09:22:51.828Z,101352.34
2022-08-28T09:23:54.242Z,101350.28
2022-08-28T09:24:57.446Z,101353.91
2022-08-28T09:26:02.097Z,101348.28
2022-08-28T09:27:12.307Z,101354.88
2022-08-28T09:28:20.482Z,101349.28
2022-08-28T09:29:32.529Z,101356.06
2022-08-28T09:30:36.397Z,101352.31
2022-08-28T09:31:42.269Z,101355.81
2022-08-28T09:32:57.999Z,101356.91
2022-08-28T09:34:23.903Z,101354.44
2022-08-28T09:35:29.563Z,101361.19
2022-08-28T09:36:33.687Z,101364.97
2022-08-28T09:37:38.025Z,101363.34
2022-08-28T09:38:40.016Z,101363.34
2022-08-28T09:39:46.668Z,101368.53
2022-08-28T09:41:25.034Z,101381.84
2022-08-28T09:42:59.945Z,101372.63
2022-08-28T09:44:02.104Z,101363.41
2022-08-28T09:45:18.281Z,101362.34
2022-08-28T09:46:24.108Z,101375.66
2022-08-28T09:47:48.692Z,101365.88
2022-08-28T09:48:52.504Z,101372.09
2022-08-28T09:49:55.555Z,101368.59
2022-08-28T09:51:03.197Z,101373.19
2022-08-28T09:52:25.142Z,101380.50
2022-08-28T09:53:29.157Z,101375.06
2022-08-28T09:54:35.498Z,101377.78
2022-08-28T09:55:44.811Z,101381.34
2022-08-28T09:56:48.579Z,101370.66
2022-08-28T09:57:50.910Z,101375.25
2022-08-28T09:58:59.471Z,101370.91
2022-08-28T10:00:02.142Z,101375.75
2022-08-28T10:01:35.749Z,101372.78
2022-08-28T10:02:46.007Z,101376.09
2022-08-28T10:03:54.364Z,101372.88
2022-08-28T10:05:03.887Z,101367.75
2022-08-28T10:06:12.390Z,101370.22
2022-08-28T10:07:21.926Z,101361.81
2022-08-28T10:08:37.836Z,101362.41
2022-08-28T10:09:47.967Z,101367.59
2022-08-28T10:10:56.007Z,101366.81
2022-08-28T10:12:06.610Z,101380.19
2022-08-28T10:13:10.835Z,101368.81
2022-08-28T10:14:29.613Z,101372.09
2022-08-28T10:15:47.453Z,101377.28
2022-08-28T10:17:00.464Z,101366.72
2022-08-28T10:18:18.133Z,101372.22
2022-08-28T10:19:40.983Z,101373.09
2022-08-28T10:20:51.714Z,101376.75
2022-08-28T10:22:04.974Z,101371.38
2022-08-28T10:23:17.650Z,101368.97
2022-08-28T10:24:35.655Z,101382.06
2022-08-28T10:25:49.608Z,101381.78
2022-08-28T10:27:00.638Z,101370.34
2022-08-28T10:28:25.748Z,101379.28
2022-08-28T10:29:40.003Z,101379.47
2022-08-28T10:30:57.316Z,101392.88
2022-08-28T10:32:15.861Z,101380.00
2022-08-28T10:33:34.422Z,101392.59
2022-08-28T10:34:53.529Z,101385.38
2022-08-28T10:36:02.671Z,101384.97
2022-08-28T10:37:14.574Z,101387.88
2022-08-28T10:38:21.554Z,101388.34
2022-08-28T10:39:35.387Z,101383.41
2022-08-28T10:40:42.031Z,101383.66
2022-08-28T10:41:47.310Z,101395.34
2022-08-28T10:42:56.820Z,101385.81
2022-08-28T10:44:04.876Z,101385.81
2022-08-28T10:45:11.863Z,101387.47
2022-08-28T10:46:17.739Z,101390.19
2022-08-28T10:47:24.770Z,101392.88
2022-08-28T10:48:33.766Z,101393.94
2022-08-28T10:49:40.156Z,101397.50
2022-08-28T10:50:47.028Z,101399.38
2022-08-28T10:51:52.258Z,101393.34
2022-08-28T10:53:01.010Z,101390.09
2022-08-28T10:54:09.094Z,101397.41
2022-08-28T10:55:16.948Z,101397.41
2022-08-28T10:56:23.340Z,101399.28
2022-08-28T10:57:36.089Z,101397.41
2022-08-28T10:58:42.521Z,101391.16
2022-08-28T10:59:51.553Z,101379.25
2022-08-28T11:00:58.054Z,101395.03
2022-08-28T11:02:02.171Z,101385.81
2022-08-28T11:03:27.108Z,101391.56
2022-08-28T11:04:33.877Z,101383.75
2022-08-28T11:05:41.413Z,101382.19
2022-08-28T11:06:48.954Z,101383.31
2022-08-28T11:07:55.462Z,101394.84
2022-08-28T11:10:59.038Z,101389.13
2022-08-28T11:12:03.930Z,101385.97
2022-08-28T11:13:09.579Z,101391.00
2022-08-28T11:14:24.540Z,101383.56
2022-08-28T11:15:53.507Z,101381.59
2022-08-28T11:16:58.790Z,101392.41
2022-08-28T11:18:41.533Z,101381.69
2022-08-28T11:20:01.689Z,101383.22
2022-08-28T11:21:09.912Z,101396.59
2022-08-28T11:22:17.782Z,101386.56
2022-08-28T11:23:24.277Z,101384.09
2022-08-28T11:24:47.081Z,101394.13
2022-08-28T11:25:54.722Z,101386.50
2022-08-28T11:27:07.447Z,101395.16
2022-08-28T11:28:16.250Z,101389.16
2022-08-28T11:29:52.713Z,101392.63
2022-08-28T11:31:30.838Z,101398.06
2022-08-28T11:32:43.578Z,101396.22
2022-08-28T11:33:52.977Z,101399.06
2022-08-28T11:34:59.983Z,101402.47
2022-08-28T11:36:03.975Z,101396.88
2022-08-28T11:37:06.988Z,101386.59
2022-08-28T11:38:09.322Z,101392.63
2022-08-28T11:39:22.876Z,101396.97
2022-08-28T11:40:56.527Z,101387.94
2022-08-28T11:42:35.070Z,101395.69
2022-08-28T11:43:40.405Z,101405.38
2022-08-28T11:44:45.026Z,101407.16
2022-08-28T11:46:13.374Z,101401.31
2022-08-28T11:47:44.891Z,101398.16
2022-08-28T11:48:51.239Z,101394.00
2022-08-28T11:49:54.670Z,101397.47
2022-08-28T11:51:00.419Z,101399.88
2022-08-28T11:52:13.190Z,101391.41
2022-08-28T11:53:43.049Z,101397.34
2022-08-28T11:54:51.693Z,101391.09
2022-08-28T11:56:37.169Z,101395.81
2022-08-28T11:57:55.726Z,101387.53
2022-08-28T11:59:08.089Z,101393.16
2022-08-28T12:00:23.671Z,101384.88
2022-08-28T12:01:31.972Z,101394.63
2022-08-28T12:03:02.936Z,101390.75
2022-08-28T12:04:09.187Z,101393.63
2022-08-28T12:05:33.636Z,101387.75
2022-08-28T12:07:17.367Z,101398.03
2022-08-28T12:09:05.977Z,101392.13
2022-08-28T12:10:57.021Z,101389.25
2022-08-28T12:12:01.476Z,101405.38
2022-08-28T12:13:05.565Z,101399.16
2022-08-28T12:14:08.414Z,101401.06
2022-08-28T12:15:12.546Z,101401.91
2022-08-28T12:16:15.794Z,101400.78
2022-08-28T12:17:31.261Z,101403.75
2022-08-28T12:19:04.082Z,101396.59
2022-08-28T12:20:11.517Z,101398.75
2022-08-28T12:21:17.471Z,101398.41
2022-08-28T12:22:22.760Z,101401.69
2022-08-28T12:23:34.694Z,101397.25
2022-08-28T12:24:45.579Z,101395.59
2022-08-28T12:25:47.702Z,101388.72
2022-08-28T12:26:56.228Z,101399.06
2022-08-28T12:28:07.996Z,101389.25
2022-08-28T12:29:29.360Z,101390.66
2022-08-28T12:30:40.839Z,101388.19
2022-08-28T12:32:22.035Z,101379.22
2022-08-28T12:33:31.942Z,101391.47
2022-08-28T12:34:43.631Z,101403.16
2022-08-28T12:35:48.065Z,101395.75
2022-08-28T12:36:56.601Z,101398.44
2022-08-28T12:38:04.486Z,101399.72
2022-08-28T12:39:06.755Z,101405.94